Overview Statistics Trail Chart Weather Telemetry Raw packets
 

This is the latest recevied weather packets stored in our database for station/object KI6PPU. If no packets are shown the sender has not sent any weather packets the latest 10 day(s).

<< 109 110 111 112 113 114 >>
Time Temp. Humidity Pressure Rain* Wind** Luminosity Snow
1787737886 16.11° C 58% 1018.2 hPa 0 mm - 0 W/m² -
1787737581 16.11° C 59% 1018.3 hPa 0 mm - 0 W/m² -
1787737275 16.67° C 58% 1018.3 hPa 0 mm - 0 W/m² -
1787736971 16.67° C 57% 1018.5 hPa 0 mm - 0 W/m² -
1787736667 16.67° C 57% 1018.4 hPa 0 mm - 0 W/m² -
1787736363 17.22° C 56% 1018.6 hPa 0 mm - 0 W/m² -
1787736061 16.67° C 55% 1018.5 hPa 0 mm - 0 W/m² -
1787735759 17.22° C 55% 1018.4 hPa 0 mm - 0 W/m² -
1787735455 17.78° C 54% 1018.5 hPa 0 mm - 0 W/m² -
1787735155 17.78° C 53% 1018.4 hPa 0 mm - 0 W/m² -
1787734850 17.78° C 52% 1018.4 hPa 0 mm - 0 W/m² -
1787734549 18.89° C 49% 1018.5 hPa 0 mm - 0 W/m² -
1787734245 18.33° C 51% 1018.8 hPa 0 mm - 0 W/m² -
1787733944 18.33° C 50% 1018.5 hPa 0 mm - 0 W/m² -
1787733644 18.33° C 50% 1018.6 hPa 0 mm - 0 W/m² -
1787733340 18.33° C 50% 1018.8 hPa 0 mm - 0 W/m² -
1787733036 17.78° C 53% 1018.6 hPa 0 mm - 0 W/m² -
1787732731 17.78° C 53% 1018.8 hPa 0 mm - 0 W/m² -
1787732431 17.78° C 52% 1019 hPa 0 mm - 0 W/m² -
1787732126 17.78° C 52% 1018.9 hPa 0 mm - 0 W/m² -
1787731824 18.33° C 52% 1018.9 hPa 0 mm - 0 W/m² -
1787731522 18.33° C 51% 1019 hPa 0 mm - 0 W/m² -
1787731218 17.78° C 52% 1019 hPa 0 mm - 0 W/m² -
1787730913 18.33° C 52% 1018.9 hPa 0 mm - 0 W/m² -
1787730607 18.33° C 52% 1019 hPa 0 mm - 0 W/m² -

* Rain latest hour (hover to see other rain measurements)
** Current wind speed in m/s (hover to see current wind gust speed)